createdAt,value
2017-10-31T00:01:16.284Z,6.00
2017-10-31T00:03:44.424Z,5.90
2017-10-31T00:06:12.603Z,5.90
2017-10-31T00:08:40.738Z,5.90
2017-10-31T00:11:08.908Z,5.80
2017-10-31T00:13:37.033Z,5.80
2017-10-31T00:16:05.182Z,5.70
2017-10-31T00:18:33.356Z,5.70
2017-10-31T00:21:02.269Z,5.60
2017-10-31T00:23:30.405Z,5.60
2017-10-31T00:25:59.332Z,5.60
2017-10-31T00:28:27.494Z,5.60
2017-10-31T00:30:55.621Z,5.50
2017-10-31T00:33:23.757Z,5.50
2017-10-31T00:35:52.005Z,5.50
2017-10-31T00:38:20.890Z,5.40
2017-10-31T00:40:49.860Z,5.40
2017-10-31T00:43:17.975Z,5.40
2017-10-31T00:45:46.105Z,5.40
2017-10-31T00:48:14.269Z,5.40
2017-10-31T00:50:42.533Z,5.40
2017-10-31T00:53:10.660Z,5.40
2017-10-31T00:55:38.797Z,5.30
2017-10-31T00:58:06.942Z,5.30
2017-10-31T01:00:35.088Z,5.30
2017-10-31T01:03:03.248Z,5.20
2017-10-31T01:05:32.140Z,5.10
2017-10-31T01:08:00.432Z,5.10
2017-10-31T01:10:28.553Z,5.10
2017-10-31T01:12:56.723Z,5.10
2017-10-31T01:15:24.880Z,5.10
2017-10-31T01:17:53.018Z,5.10
2017-10-31T01:20:21.190Z,5.10
2017-10-31T01:22:50.077Z,5.10
2017-10-31T01:25:18.326Z,5.10
2017-10-31T01:27:46.456Z,5.10
2017-10-31T01:30:14.595Z,5.00
2017-10-31T01:32:42.769Z,5.00
2017-10-31T01:35:10.906Z,4.90
2017-10-31T01:37:39.041Z,4.90
2017-10-31T01:40:07.208Z,4.90
2017-10-31T01:42:35.347Z,4.80
2017-10-31T01:45:04.272Z,4.90
2017-10-31T01:47:32.413Z,4.80
2017-10-31T01:50:00.546Z,4.90
2017-10-31T01:52:28.800Z,4.80
2017-10-31T01:54:56.945Z,4.90
2017-10-31T01:57:25.074Z,4.80
2017-10-31T01:59:53.220Z,4.70
2017-10-31T02:02:21.357Z,4.70
2017-10-31T02:04:50.277Z,4.70
2017-10-31T02:07:18.411Z,4.70
2017-10-31T02:09:46.662Z,4.70
2017-10-31T02:12:14.797Z,4.70
2017-10-31T02:14:42.921Z,4.70
2017-10-31T02:17:11.126Z,4.70
2017-10-31T02:19:40.016Z,4.60
2017-10-31T02:22:08.168Z,4.60
2017-10-31T02:24:36.297Z,4.60
2017-10-31T02:27:04.453Z,4.50
2017-10-31T02:29:32.599Z,4.50
2017-10-31T02:32:00.717Z,4.60
2017-10-31T02:34:28.957Z,4.60
2017-10-31T02:36:57.124Z,4.60
2017-10-31T02:39:25.252Z,4.50
2017-10-31T02:41:53.377Z,4.50
2017-10-31T02:44:21.610Z,4.50
2017-10-31T02:46:49.744Z,4.40
2017-10-31T02:49:17.901Z,4.40
2017-10-31T02:51:46.022Z,4.40
2017-10-31T02:54:14.174Z,4.40
2017-10-31T02:56:42.369Z,4.40
2017-10-31T02:59:10.503Z,4.40
2017-10-31T03:01:38.813Z,4.30
2017-10-31T03:04:06.948Z,4.30
2017-10-31T03:06:35.103Z,4.30
2017-10-31T03:09:03.998Z,4.30
2017-10-31T03:11:32.925Z,4.30
2017-10-31T03:14:01.072Z,4.20
2017-10-31T03:16:29.201Z,4.30
2017-10-31T03:18:57.520Z,4.30
2017-10-31T03:21:25.654Z,4.20
2017-10-31T03:23:53.804Z,4.30
2017-10-31T03:26:21.938Z,4.20
2017-10-31T03:28:50.086Z,4.20
2017-10-31T03:31:18.239Z,4.20
2017-10-31T03:33:46.537Z,4.20
2017-10-31T03:36:15.452Z,4.10
2017-10-31T03:38:43.591Z,4.20
2017-10-31T03:41:11.765Z,4.20
2017-10-31T03:43:39.886Z,4.10
2017-10-31T03:46:08.045Z,4.10
2017-10-31T03:48:36.183Z,4.10
2017-10-31T03:51:04.297Z,4.10
2017-10-31T03:53:32.600Z,4.10
2017-10-31T03:56:00.788Z,4.10
2017-10-31T03:58:29.043Z,4.10
2017-10-31T04:00:57.169Z,4.10
2017-10-31T04:03:26.062Z,4.10
2017-10-31T04:05:54.990Z,4.10
2017-10-31T04:08:23.141Z,4.10
2017-10-31T04:10:52.224Z,4.10
2017-10-31T04:13:21.124Z,4.10
2017-10-31T04:15:50.028Z,4.10
2017-10-31T04:18:18.178Z,4.10
2017-10-31T04:20:47.084Z,4.00
2017-10-31T04:23:15.244Z,3.90
2017-10-31T04:25:44.136Z,4.00
2017-10-31T04:28:13.216Z,4.00
2017-10-31T04:30:41.341Z,4.00
2017-10-31T04:33:09.470Z,4.00
2017-10-31T04:35:38.382Z,4.00
2017-10-31T04:38:06.505Z,3.90
2017-10-31T04:40:34.673Z,4.00
2017-10-31T04:43:02.801Z,3.90
2017-10-31T04:45:31.070Z,3.90
2017-10-31T04:47:59.191Z,3.90
2017-10-31T04:50:27.323Z,3.90
2017-10-31T04:52:55.469Z,3.90
2017-10-31T04:55:23.600Z,3.80
2017-10-31T04:57:51.766Z,3.80
2017-10-31T05:00:19.890Z,3.80
2017-10-31T05:02:48.021Z,3.80
2017-10-31T05:05:16.292Z,3.70
2017-10-31T05:07:44.429Z,3.70
2017-10-31T05:10:12.580Z,3.70
2017-10-31T05:12:40.718Z,3.70
2017-10-31T05:15:08.873Z,3.70
2017-10-31T05:17:37.005Z,3.80
2017-10-31T05:20:05.148Z,3.80
2017-10-31T05:22:33.424Z,3.70
2017-10-31T05:25:01.582Z,3.70
2017-10-31T05:27:29.841Z,3.70
2017-10-31T05:29:57.973Z,3.70
2017-10-31T05:32:26.117Z,3.70
2017-10-31T05:34:54.264Z,3.70
2017-10-31T05:37:22.399Z,3.60
2017-10-31T05:39:51.446Z,3.60
2017-10-31T05:42:19.568Z,3.50
2017-10-31T05:44:48.461Z,3.60
2017-10-31T05:47:17.384Z,3.60
2017-10-31T05:49:45.517Z,3.60
2017-10-31T05:52:14.445Z,3.60
2017-10-31T05:54:42.572Z,3.50
2017-10-31T05:57:10.699Z,3.50
2017-10-31T05:59:38.876Z,3.40
2017-10-31T06:02:07.024Z,3.40
2017-10-31T06:04:35.189Z,3.40
2017-10-31T06:07:04.080Z,3.40
2017-10-31T06:09:32.993Z,3.30
2017-10-31T06:12:01.125Z,3.30
2017-10-31T06:17:10.548Z,3.30
2017-10-31T06:19:38.711Z,3.30
2017-10-31T06:22:07.196Z,3.30
2017-10-31T06:24:35.301Z,3.30
2017-10-31T06:27:03.461Z,3.30
2017-10-31T06:29:31.588Z,3.30
2017-10-31T06:31:59.849Z,3.30
2017-10-31T06:34:27.989Z,3.30
2017-10-31T06:36:56.178Z,3.30
2017-10-31T06:39:25.077Z,3.30
2017-10-31T06:41:53.981Z,3.30
2017-10-31T06:44:22.889Z,3.30
2017-10-31T06:46:51.783Z,3.30
2017-10-31T06:49:20.701Z,3.30
2017-10-31T06:51:48.845Z,3.30
2017-10-31T06:54:17.109Z,3.40
2017-10-31T06:56:45.273Z,3.40
2017-10-31T06:59:13.421Z,3.40
2017-10-31T07:01:41.581Z,3.40
2017-10-31T07:04:09.718Z,3.40
2017-10-31T07:06:37.842Z,3.50
2017-10-31T07:09:05.997Z,3.50
2017-10-31T07:11:34.148Z,3.60
2017-10-31T07:14:02.409Z,3.60
2017-10-31T07:16:30.561Z,3.70
2017-10-31T07:18:59.449Z,3.70
2017-10-31T07:21:27.616Z,3.60
2017-10-31T07:23:56.533Z,3.70
2017-10-31T07:26:24.655Z,3.70
2017-10-31T07:28:52.816Z,3.70
2017-10-31T07:31:21.077Z,3.80
2017-10-31T07:33:49.241Z,3.80
2017-10-31T07:36:17.373Z,3.80
2017-10-31T07:38:45.547Z,3.80
2017-10-31T07:41:14.456Z,3.90
2017-10-31T07:43:42.619Z,3.90
2017-10-31T07:46:10.781Z,3.90
2017-10-31T07:48:39.797Z,4.00
2017-10-31T07:51:07.940Z,4.00
2017-10-31T07:53:36.101Z,4.10
2017-10-31T07:56:04.251Z,4.20
2017-10-31T07:58:32.390Z,4.20
2017-10-31T08:01:00.572Z,4.20
2017-10-31T08:03:28.715Z,4.30
2017-10-31T08:05:57.662Z,4.40
2017-10-31T08:08:25.807Z,4.30
2017-10-31T08:10:53.937Z,4.40
2017-10-31T08:13:22.097Z,4.40
2017-10-31T08:15:50.232Z,4.50
2017-10-31T08:18:19.165Z,4.60
2017-10-31T08:20:48.104Z,4.60
2017-10-31T08:23:16.380Z,4.60
2017-10-31T08:25:44.526Z,4.70
2017-10-31T08:28:13.428Z,4.90
2017-10-31T08:30:42.353Z,5.10
2017-10-31T08:33:10.497Z,5.10
2017-10-31T08:35:38.670Z,5.30
2017-10-31T08:38:06.805Z,5.40
2017-10-31T08:40:34.958Z,5.40
2017-10-31T08:43:03.245Z,5.50
2017-10-31T08:45:31.375Z,5.70
2017-10-31T08:47:59.537Z,6.30
2017-10-31T08:50:28.437Z,6.90
2017-10-31T08:52:56.633Z,6.90
2017-10-31T08:55:24.766Z,6.90
2017-10-31T08:58:00.306Z,7.10
2017-10-31T09:00:29.246Z,8.50
2017-10-31T09:02:57.380Z,8.50
2017-10-31T09:05:26.312Z,9.80
2017-10-31T09:07:54.458Z,9.80
2017-10-31T09:10:22.715Z,10.40
2017-10-31T09:12:51.621Z,11.00
2017-10-31T09:15:20.561Z,11.30
2017-10-31T09:17:48.712Z,11.30
2017-10-31T09:20:16.891Z,11.40
2017-10-31T09:22:45.062Z,11.30
2017-10-31T09:25:13.216Z,11.10
2017-10-31T09:27:41.370Z,10.60
2017-10-31T09:30:10.353Z,9.90
2017-10-31T09:32:38.502Z,9.80
2017-10-31T09:35:06.668Z,9.60
2017-10-31T09:37:34.816Z,9.50
2017-10-31T09:40:02.961Z,9.20
2017-10-31T09:42:32.003Z,9.00
2017-10-31T09:45:00.146Z,9.00
2017-10-31T09:47:28.272Z,8.90
2017-10-31T09:49:56.460Z,8.60
2017-10-31T09:52:25.384Z,8.50
2017-10-31T09:54:53.553Z,8.50
2017-10-31T09:57:21.721Z,8.50
2017-10-31T09:59:50.613Z,8.60
2017-10-31T10:02:18.786Z,8.60
2017-10-31T10:04:46.919Z,8.70
2017-10-31T10:07:15.185Z,8.70
2017-10-31T10:09:43.322Z,8.80
2017-10-31T10:12:12.242Z,9.10
2017-10-31T10:14:40.411Z,9.00
2017-10-31T10:17:08.561Z,9.10
2017-10-31T10:19:36.815Z,9.10
2017-10-31T10:22:04.962Z,9.20
2017-10-31T10:24:33.123Z,9.30
2017-10-31T10:27:01.266Z,9.40
2017-10-31T10:29:29.395Z,9.60
2017-10-31T10:31:58.348Z,9.80
2017-10-31T10:34:26.483Z,9.80
2017-10-31T10:36:54.719Z,9.90
2017-10-31T10:39:22.867Z,10.00
2017-10-31T10:41:51.169Z,10.10
2017-10-31T10:44:19.327Z,10.20
2017-10-31T10:46:47.503Z,10.30
2017-10-31T10:49:15.657Z,10.40
2017-10-31T10:51:43.804Z,10.50
2017-10-31T10:54:12.095Z,10.50
2017-10-31T10:56:40.270Z,10.50
2017-10-31T10:59:08.401Z,10.60
2017-10-31T11:01:37.349Z,10.40
2017-10-31T11:04:06.254Z,10.30
2017-10-31T11:06:34.432Z,10.20
2017-10-31T11:09:02.590Z,10.20
2017-10-31T11:11:30.872Z,10.20
2017-10-31T11:13:59.034Z,10.10
2017-10-31T11:16:27.189Z,10.00
2017-10-31T11:18:55.353Z,10.00
2017-10-31T11:21:23.499Z,9.90
2017-10-31T11:23:54.079Z,10.00
2017-10-31T11:26:31.187Z,10.20
2017-10-31T11:29:06.428Z,10.20
2017-10-31T11:31:37.465Z,10.30
2017-10-31T11:34:06.201Z,10.30
2017-10-31T11:36:34.927Z,10.30
2017-10-31T11:39:03.082Z,10.40
2017-10-31T11:41:31.229Z,10.40
2017-10-31T11:43:59.375Z,10.40
2017-10-31T11:46:27.520Z,10.40
2017-10-31T11:48:55.716Z,10.50
2017-10-31T11:51:23.898Z,10.50
2017-10-31T11:53:52.054Z,10.60
2017-10-31T11:56:20.241Z,10.70
2017-10-31T11:58:48.410Z,10.80
2017-10-31T12:01:16.582Z,10.90
2017-10-31T12:03:44.724Z,10.90
2017-10-31T12:06:12.914Z,11.00
2017-10-31T12:08:41.069Z,11.10
2017-10-31T12:11:09.219Z,11.20
2017-10-31T12:13:37.407Z,11.40
2017-10-31T12:16:06.319Z,11.50
2017-10-31T12:18:34.478Z,11.50
2017-10-31T12:21:02.631Z,11.50
2017-10-31T12:23:30.784Z,11.50
2017-10-31T12:25:59.841Z,11.30
2017-10-31T12:28:28.002Z,11.30
2017-10-31T12:30:56.213Z,11.40
2017-10-31T12:33:24.361Z,11.30
2017-10-31T12:35:52.521Z,11.30
2017-10-31T12:38:20.681Z,11.40
2017-10-31T12:40:48.848Z,11.40
2017-10-31T12:43:17.030Z,11.30
2017-10-31T12:45:45.195Z,11.30
2017-10-31T12:48:13.449Z,11.40
2017-10-31T12:50:41.599Z,11.50
2017-10-31T12:53:09.750Z,11.60
2017-10-31T12:55:38.049Z,11.70
2017-10-31T12:58:06.202Z,11.70
2017-10-31T13:00:34.346Z,11.80
2017-10-31T13:03:02.522Z,11.80
2017-10-31T13:05:30.668Z,12.00
2017-10-31T13:07:58.808Z,12.10
2017-10-31T13:10:26.984Z,12.10
2017-10-31T13:12:55.108Z,12.20
2017-10-31T13:15:23.369Z,12.20
2017-10-31T13:17:51.545Z,12.30
2017-10-31T13:20:19.692Z,12.10
2017-10-31T13:22:47.857Z,12.10
2017-10-31T13:25:16.013Z,12.20
2017-10-31T13:27:44.208Z,12.30
2017-10-31T13:30:12.362Z,12.30
2017-10-31T13:32:40.538Z,12.30
2017-10-31T13:35:08.688Z,12.20
2017-10-31T13:37:36.846Z,12.20
2017-10-31T13:40:05.004Z,12.20
2017-10-31T13:42:33.276Z,12.30
2017-10-31T13:45:02.230Z,12.30
2017-10-31T13:47:30.459Z,12.30
2017-10-31T13:49:58.644Z,12.30
2017-10-31T13:52:26.820Z,12.30
2017-10-31T13:54:55.060Z,12.30
2017-10-31T13:57:23.989Z,12.40
2017-10-31T13:59:52.218Z,12.40
2017-10-31T14:02:21.166Z,12.10
2017-10-31T14:04:49.350Z,12.10
2017-10-31T14:07:17.559Z,12.20
2017-10-31T14:09:46.509Z,12.40
2017-10-31T14:12:14.702Z,12.40
2017-10-31T14:14:42.886Z,12.60
2017-10-31T14:17:11.069Z,12.60
2017-10-31T14:19:39.341Z,12.70
2017-10-31T14:22:07.502Z,12.70
2017-10-31T14:24:35.685Z,12.60
2017-10-31T14:27:03.841Z,12.50
2017-10-31T14:29:32.041Z,12.60
2017-10-31T14:32:00.236Z,12.60
2017-10-31T14:34:28.562Z,12.70
2017-10-31T14:36:56.757Z,12.80
2017-10-31T14:39:24.941Z,12.90
2017-10-31T14:41:53.154Z,12.80
2017-10-31T14:44:21.317Z,12.60
2017-10-31T14:46:49.510Z,12.50
2017-10-31T14:49:17.709Z,12.40
2017-10-31T14:51:46.003Z,12.50
2017-10-31T14:54:14.166Z,12.50
2017-10-31T14:56:42.434Z,12.50
2017-10-31T14:59:10.682Z,12.50
2017-10-31T15:01:38.953Z,12.40
2017-10-31T15:04:07.121Z,12.40
2017-10-31T15:06:35.319Z,12.40
2017-10-31T15:09:03.621Z,12.30
2017-10-31T15:11:31.848Z,12.20
2017-10-31T15:14:00.246Z,12.20
2017-10-31T15:16:28.417Z,12.20
2017-10-31T15:18:56.600Z,12.20
2017-10-31T15:21:24.783Z,12.20
2017-10-31T15:23:52.946Z,12.10
2017-10-31T15:26:21.254Z,12.00
2017-10-31T15:28:49.434Z,11.90
2017-10-31T15:31:17.653Z,11.80
2017-10-31T15:33:45.823Z,11.80
2017-10-31T15:36:14.022Z,11.70
2017-10-31T15:38:42.190Z,11.60
2017-10-31T15:41:10.490Z,11.50
2017-10-31T15:43:38.657Z,11.50
2017-10-31T15:46:06.843Z,11.40
2017-10-31T15:48:35.101Z,11.30
2017-10-31T15:51:03.294Z,11.20
2017-10-31T15:53:31.586Z,11.10
2017-10-31T15:56:00.561Z,11.00
2017-10-31T15:58:28.776Z,10.90
2017-10-31T16:00:57.728Z,10.80
2017-10-31T16:03:25.893Z,10.70
2017-10-31T16:05:54.121Z,10.70
2017-10-31T16:08:22.302Z,10.60
2017-10-31T16:10:50.628Z,10.50
2017-10-31T16:13:18.794Z,10.40
2017-10-31T16:15:46.960Z,10.30
2017-10-31T16:18:15.140Z,10.30
2017-10-31T16:20:43.328Z,10.20
2017-10-31T16:23:11.536Z,10.10
2017-10-31T16:25:40.484Z,10.00
2017-10-31T16:28:08.787Z,10.00
2017-10-31T16:30:37.717Z,9.90
2017-10-31T16:33:05.936Z,9.90
2017-10-31T16:35:34.083Z,9.80
2017-10-31T16:38:02.285Z,9.70
2017-10-31T16:40:30.501Z,9.60
2017-10-31T16:42:58.710Z,9.50
2017-10-31T16:45:26.920Z,9.50
2017-10-31T16:47:55.108Z,9.40
2017-10-31T16:50:30.823Z,9.30
2017-10-31T16:52:59.152Z,9.30
2017-10-31T16:55:27.325Z,9.20
2017-10-31T16:57:55.515Z,9.20
2017-10-31T17:00:23.709Z,9.10
2017-10-31T17:02:51.902Z,9.00
2017-10-31T17:05:20.212Z,9.00
2017-10-31T17:07:48.389Z,8.90
2017-10-31T17:10:17.361Z,8.80
2017-10-31T17:12:45.518Z,8.80
2017-10-31T17:15:13.713Z,8.80
2017-10-31T17:17:42.708Z,8.70
2017-10-31T17:20:11.648Z,8.60
2017-10-31T17:22:39.865Z,8.60
2017-10-31T17:25:08.032Z,8.60
2017-10-31T17:27:36.232Z,8.50
2017-10-31T17:30:05.200Z,8.40
2017-10-31T17:32:33.370Z,8.40
2017-10-31T17:35:01.599Z,8.30
2017-10-31T17:37:29.830Z,8.40
2017-10-31T17:39:58.153Z,8.30
2017-10-31T17:42:26.321Z,8.30
2017-10-31T17:44:55.290Z,8.20
2017-10-31T17:47:24.271Z,8.30
2017-10-31T17:49:53.222Z,8.20
2017-10-31T17:52:21.437Z,8.20
2017-10-31T17:54:50.374Z,8.10
2017-10-31T17:57:18.695Z,8.00
2017-10-31T17:59:47.691Z,8.00
2017-10-31T18:02:15.904Z,7.90
2017-10-31T18:04:44.122Z,7.80
2017-10-31T18:07:12.313Z,7.80
2017-10-31T18:09:40.491Z,7.80
2017-10-31T18:12:08.803Z,7.70
2017-10-31T18:14:37.027Z,7.70
2017-10-31T18:17:05.229Z,7.90
2017-10-31T18:19:34.165Z,7.80
2017-10-31T18:22:02.374Z,7.80
2017-10-31T18:24:30.559Z,7.70
2017-10-31T18:26:58.776Z,7.70
2017-10-31T18:29:26.961Z,7.70
2017-10-31T18:31:55.296Z,7.70
2017-10-31T18:34:24.241Z,7.60
2017-10-31T18:36:52.413Z,7.60
2017-10-31T18:39:20.623Z,7.60
2017-10-31T18:41:48.785Z,7.50
2017-10-31T18:44:17.005Z,7.70
2017-10-31T18:46:45.922Z,7.70
2017-10-31T18:49:14.079Z,7.60
2017-10-31T18:51:42.325Z,7.60
2017-10-31T18:54:11.254Z,7.60
2017-10-31T18:56:39.458Z,7.50
2017-10-31T18:59:07.639Z,7.50
2017-10-31T19:01:35.871Z,7.60
2017-10-31T19:04:04.018Z,7.70
2017-10-31T19:06:33.024Z,7.60
2017-10-31T19:09:01.210Z,7.60
2017-10-31T19:11:29.402Z,7.70
2017-10-31T19:13:57.628Z,7.70
2017-10-31T19:16:26.581Z,7.70
2017-10-31T19:18:54.807Z,7.70
2017-10-31T19:21:23.778Z,7.70
2017-10-31T19:23:52.061Z,7.70
2017-10-31T19:26:21.037Z,7.70
2017-10-31T19:28:49.214Z,7.70
2017-10-31T19:31:17.390Z,7.80
2017-10-31T19:33:45.569Z,7.80
2017-10-31T19:36:14.551Z,7.70
2017-10-31T19:38:42.751Z,7.70
2017-10-31T19:41:11.819Z,7.60
2017-10-31T19:43:40.032Z,7.70
2017-10-31T19:46:08.245Z,7.50
2017-10-31T19:48:36.416Z,7.60
2017-10-31T19:51:04.640Z,7.50
2017-10-31T19:53:33.582Z,7.60
2017-10-31T19:56:01.769Z,7.60
2017-10-31T19:58:30.073Z,7.60
2017-10-31T20:00:58.234Z,7.60
2017-10-31T20:03:26.392Z,7.50
2017-10-31T20:05:54.631Z,7.60
2017-10-31T20:08:22.805Z,7.60
2017-10-31T20:10:50.997Z,7.60
2017-10-31T20:13:19.205Z,7.60
2017-10-31T20:15:47.388Z,7.60
2017-10-31T20:18:15.709Z,7.60
2017-10-31T20:20:43.884Z,7.60
2017-10-31T20:23:12.085Z,7.60
2017-10-31T20:25:40.264Z,7.50
2017-10-31T20:28:08.477Z,7.50
2017-10-31T20:30:37.410Z,7.50
2017-10-31T20:33:06.407Z,7.60
2017-10-31T20:35:34.602Z,7.60
2017-10-31T20:38:02.800Z,7.60
2017-10-31T20:40:30.995Z,7.60
2017-10-31T20:42:59.172Z,7.60
2017-10-31T20:45:27.355Z,7.70
2017-10-31T20:47:55.520Z,7.70
2017-10-31T20:50:23.869Z,7.70
2017-10-31T20:52:52.893Z,7.70
2017-10-31T20:55:21.010Z,7.70
2017-10-31T20:57:49.199Z,7.70
2017-10-31T21:00:17.377Z,7.70
2017-10-31T21:02:45.574Z,7.80
2017-10-31T21:05:14.512Z,7.80
2017-10-31T21:07:42.695Z,7.70
2017-10-31T21:10:11.031Z,7.80
2017-10-31T21:12:39.201Z,7.80
2017-10-31T21:15:07.401Z,7.80
2017-10-31T21:17:35.560Z,7.80
2017-10-31T21:20:03.719Z,7.80
2017-10-31T21:22:31.918Z,7.90
2017-10-31T21:25:00.085Z,7.90
2017-10-31T21:27:28.384Z,7.90
2017-10-31T21:29:56.574Z,7.90
2017-10-31T21:32:24.783Z,7.90
2017-10-31T21:34:53.740Z,7.90
2017-10-31T21:37:21.934Z,7.90
2017-10-31T21:39:50.152Z,7.90
2017-10-31T21:42:18.318Z,7.90
2017-10-31T21:44:46.481Z,7.90
2017-10-31T21:47:14.777Z,7.90
2017-10-31T21:49:42.995Z,8.00
2017-10-31T21:52:11.182Z,8.00
2017-10-31T21:54:39.363Z,8.00
2017-10-31T21:57:08.310Z,8.00
2017-10-31T21:59:36.470Z,8.00
2017-10-31T22:02:05.532Z,8.00
2017-10-31T22:04:33.700Z,8.00
2017-10-31T22:07:02.672Z,8.00
2017-10-31T22:09:30.849Z,8.00
2017-10-31T22:11:59.043Z,8.10
2017-10-31T22:14:28.009Z,8.10
2017-10-31T22:16:56.186Z,8.10
2017-10-31T22:19:24.480Z,8.10
2017-10-31T22:21:53.428Z,8.10
2017-10-31T22:24:21.631Z,8.10
2017-10-31T22:26:49.805Z,8.10
2017-10-31T22:29:17.993Z,8.10
2017-10-31T22:31:46.974Z,8.10
2017-10-31T22:34:15.151Z,8.10
2017-10-31T22:36:43.461Z,8.10
2017-10-31T22:39:11.623Z,8.10
2017-10-31T22:41:39.803Z,8.10
2017-10-31T22:44:07.990Z,8.10
2017-10-31T22:46:36.174Z,8.10
2017-10-31T22:49:05.110Z,8.10
2017-10-31T22:51:33.311Z,8.10
2017-10-31T22:54:01.609Z,8.10
2017-10-31T22:56:29.838Z,8.10
2017-10-31T22:58:58.009Z,8.10
2017-10-31T23:01:26.206Z,8.10
2017-10-31T23:03:55.148Z,8.20
2017-10-31T23:06:23.331Z,8.10
2017-10-31T23:08:51.522Z,8.10
2017-10-31T23:11:27.790Z,8.10
2017-10-31T23:14:03.321Z,8.10
2017-10-31T23:16:38.950Z,8.10
2017-10-31T23:19:14.621Z,8.10
2017-10-31T23:21:50.706Z,8.10
2017-10-31T23:24:27.552Z,8.10
2017-10-31T23:27:02.993Z,8.10
2017-10-31T23:29:31.285Z,8.10
2017-10-31T23:31:59.461Z,8.10
2017-10-31T23:34:27.615Z,8.00
2017-10-31T23:36:55.827Z,8.00
2017-10-31T23:39:24.764Z,8.00
2017-10-31T23:41:52.975Z,7.90
2017-10-31T23:44:21.161Z,8.00
2017-10-31T23:46:49.470Z,8.00
2017-10-31T23:49:18.426Z,8.00
2017-10-31T23:51:47.368Z,8.00
2017-10-31T23:54:15.569Z,8.00
2017-10-31T23:56:43.797Z,8.00
2017-10-31T23:59:11.970Z,8.00
